Terminal Aerodrome Forecast
Issued by NWS Spokane, WA

Home | Current Version | Previous Version | Text Only | Print | Product List | Glossary On
Versions: 1 2 3 4 5 6 7 8 9 10 11 12 13 14
000
FTUS46 KOTX 171721
TAFLWS
TAF
KLWS 171721Z 1718/1818 10005KT P6SM -SHRA SCT040 OVC060
     FM172200 13004KT P6SM -RA SCT020 OVC040
     FM180300 22007KT 5SM RA SCT018 OVC025
     FM180500 26010KT P6SM VCSH SCT030 BKN080=

USA.gov is the U.S. government's official web portal to all federal, state and local government web resources and services.